Buckfastleigh, United Kingdom
Current Conditions -  °F | °C
As of 8:20 AM on Friday 24 Oct 2014 (Local Time) from EGTE Reporting Station
Scattered Clouds Scattered Clouds  
Wind Chill: 57°   Ceiling: Unl
Heat Index: 57°   Visibility: 6mi
Dew Point: 55°   Wind: 8mph
Humidity: 94%   Direction: 170°S
Pressure: 29.94"   Gusts: NA
Location:  50.48°N, 3.78°W
Report Text: EGTE 240720Z 17007KT 9999 FEW006 SCT015 14/13 Q1014
Loading
Personal Weather Stations






























Interactive Weather Map
Tropical Storm Tracking
New forecast layout! Learn more

10-Day Weather Forecast

Advertisements
Track Severe Weather on mobile